createdAt,value
2022-09-27T00:00:19.879Z,99240.28
2022-09-27T00:05:35.113Z,99251.75
2022-09-27T00:10:50.793Z,99258.06
2022-09-27T00:16:05.989Z,99267.72
2022-09-27T00:21:21.293Z,99284.41
2022-09-27T00:26:37.247Z,99283.09
2022-09-27T00:31:53.134Z,99277.31
2022-09-27T00:37:08.131Z,99273.44
2022-09-27T00:42:23.880Z,99279.00
2022-09-27T00:47:38.929Z,99270.28
2022-09-27T00:52:53.883Z,99282.16
2022-09-27T00:58:08.915Z,99276.44
2022-09-27T01:03:23.957Z,99279.38
2022-09-27T01:08:39.269Z,99287.72
2022-09-27T01:13:54.895Z,99299.44
2022-09-27T01:19:10.112Z,99302.03
2022-09-27T01:24:25.916Z,99309.44
2022-09-27T01:29:40.888Z,99315.56
2022-09-27T01:34:55.889Z,99317.59
2022-09-27T01:40:11.199Z,99314.66
2022-09-27T01:45:45.307Z,99315.41
2022-09-27T01:51:19.234Z,99309.84
2022-09-27T01:56:35.209Z,99310.41
2022-09-27T02:02:17.323Z,99309.63
2022-09-27T02:08:07.922Z,99303.91
2022-09-27T02:13:23.887Z,99315.19
2022-09-27T02:18:47.956Z,99304.66
2022-09-27T02:24:02.916Z,99306.31
2022-09-27T02:29:17.929Z,99308.72
2022-09-27T02:34:34.990Z,99292.75
2022-09-27T02:39:49.928Z,99305.19
2022-09-27T02:45:04.969Z,99291.81
2022-09-27T02:50:20.197Z,99294.59
2022-09-27T02:56:00.904Z,99282.75
2022-09-27T03:01:30.965Z,99294.59
2022-09-27T03:06:53.935Z,99300.91
2022-09-27T03:12:09.246Z,99303.88
2022-09-27T03:17:25.223Z,99298.31
2022-09-27T03:22:59.953Z,99298.31
2022-09-27T03:28:14.963Z,99290.72
2022-09-27T03:33:30.248Z,99287.56
2022-09-27T03:38:51.378Z,99294.94
2022-09-27T03:44:10.957Z,99291.97
2022-09-27T03:49:26.000Z,99307.03
2022-09-27T03:54:40.908Z,99310.94
2022-09-27T03:59:56.221Z,99314.81
2022-09-27T04:05:20.930Z,99306.84
2022-09-27T04:10:38.925Z,99310.78
2022-09-27T04:15:53.892Z,99307.09
2022-09-27T04:21:24.225Z,99302.59
2022-09-27T04:26:38.900Z,99305.97
2022-09-27T04:31:55.956Z,99300.03
2022-09-27T04:37:33.922Z,99313.19
2022-09-27T04:42:48.935Z,99308.75
2022-09-27T04:48:03.927Z,99307.84
2022-09-27T04:53:21.003Z,99307.63
2022-09-27T04:58:35.944Z,99318.03
2022-09-27T05:03:50.953Z,99321.94
2022-09-27T05:09:06.919Z,99333.63
2022-09-27T05:14:29.925Z,99334.16
2022-09-27T05:20:07.930Z,99337.50
2022-09-27T05:25:33.919Z,99326.94
2022-09-27T05:30:48.960Z,99325.47
2022-09-27T05:36:03.913Z,99326.78
2022-09-27T05:41:19.259Z,99328.03
2022-09-27T05:46:36.280Z,99330.06
2022-09-27T05:51:52.185Z,99340.47
2022-09-27T05:57:11.232Z,99343.25
2022-09-27T06:02:29.221Z,99348.09
2022-09-27T06:08:04.974Z,99355.69
2022-09-27T06:13:24.902Z,99357.72
2022-09-27T06:18:39.980Z,99356.97
2022-09-27T06:23:54.973Z,99361.06
2022-09-27T06:29:16.027Z,99352.72
2022-09-27T06:34:38.952Z,99364.41
2022-09-27T06:39:53.901Z,99352.56
2022-09-27T06:45:28.756Z,99352.56
2022-09-27T06:51:03.273Z,99381.63
2022-09-27T06:56:18.921Z,99387.94
2022-09-27T07:01:34.999Z,99395.53
2022-09-27T07:07:08.909Z,99385.69
2022-09-27T07:12:29.292Z,99384.25
2022-09-27T07:17:45.928Z,99387.03
2022-09-27T07:23:00.953Z,99388.47
2022-09-27T07:28:21.559Z,99403.69
2022-09-27T07:33:41.115Z,99397.94
2022-09-27T07:38:58.996Z,99410.38
2022-09-27T07:44:15.932Z,99414.97
2022-09-27T07:49:50.924Z,99410.72
2022-09-27T07:55:31.973Z,99415.53
2022-09-27T08:00:51.753Z,99423.88
2022-09-27T08:06:06.934Z,99427.41
2022-09-27T08:11:21.925Z,99449.63
2022-09-27T08:16:37.016Z,99445.38
2022-09-27T08:21:58.696Z,99447.59
2022-09-27T08:27:24.929Z,99451.69
2022-09-27T08:32:49.980Z,99444.09
2022-09-27T08:38:05.953Z,99442.03
2022-09-27T08:43:21.932Z,99437.97
2022-09-27T08:48:36.922Z,99441.53
2022-09-27T08:53:51.961Z,99448.34
2022-09-27T08:59:06.744Z,99452.66
2022-09-27T09:04:21.996Z,99453.91
2022-09-27T09:09:36.947Z,99455.44
2022-09-27T09:15:00.941Z,99464.50
2022-09-27T09:20:18.274Z,99469.34
2022-09-27T09:25:36.293Z,99471.34
2022-09-27T09:30:57.955Z,99460.75
2022-09-27T09:36:13.966Z,99460.03
2022-09-27T09:41:28.970Z,99443.91
2022-09-27T09:46:45.901Z,99463.38
2022-09-27T09:52:06.565Z,99461.34
2022-09-27T09:57:24.258Z,99473.75
2022-09-27T10:02:39.935Z,99478.56
2022-09-27T10:07:59.947Z,99475.03
2022-09-27T10:13:14.959Z,99474.31
2022-09-27T10:18:34.994Z,99474.84
2022-09-27T10:23:51.982Z,99474.84
2022-09-27T10:29:19.719Z,99474.84
2022-09-27T10:34:35.959Z,99478.19
2022-09-27T10:39:50.952Z,99484.28
2022-09-27T10:45:06.938Z,99477.25
2022-09-27T10:50:52.250Z,99481.50
2022-09-27T10:56:29.956Z,99475.22
2022-09-27T11:01:45.921Z,99479.47
2022-09-27T11:07:08.957Z,99479.47
2022-09-27T11:12:25.937Z,99475.78
2022-09-27T11:17:41.021Z,99480.94
2022-09-27T11:22:57.125Z,99483.00
2022-09-27T11:28:12.932Z,99484.28
2022-09-27T11:33:32.239Z,99496.16
2022-09-27T11:38:53.236Z,99488.56
2022-09-27T11:44:08.963Z,99487.06
2022-09-27T11:49:23.965Z,99490.59
2022-09-27T11:54:46.003Z,99487.63
2022-09-27T12:00:02.250Z,99488.38
2022-09-27T12:05:27.046Z,99488.56
2022-09-27T12:10:47.697Z,99487.81
2022-09-27T12:16:02.983Z,99478.19
2022-09-27T12:21:26.983Z,99473.91
2022-09-27T12:26:43.343Z,99474.66
2022-09-27T12:32:00.988Z,99472.63
2022-09-27T12:37:15.918Z,99472.63
2022-09-27T12:42:31.336Z,99488.56
2022-09-27T12:47:54.992Z,99478.91
2022-09-27T12:53:09.755Z,99483.19
2022-09-27T12:58:24.989Z,99494.84
2022-09-27T13:03:39.978Z,99487.25
2022-09-27T13:08:56.003Z,99499.13
2022-09-27T13:14:14.028Z,99478.19
2022-09-27T13:19:28.967Z,99464.09
2022-09-27T13:24:45.255Z,99455.03
2022-09-27T13:30:24.217Z,99470.38
2022-09-27T13:35:39.935Z,99466.88
2022-09-27T13:40:57.989Z,99468.91
2022-09-27T13:46:28.036Z,99461.31
2022-09-27T13:51:42.766Z,99446.69
2022-09-27T13:56:58.951Z,99441.47
2022-09-27T14:02:14.770Z,99432.59
2022-09-27T14:07:30.942Z,99431.84
2022-09-27T14:12:46.946Z,99424.78
2022-09-27T14:18:02.008Z,99423.31
2022-09-27T14:23:17.944Z,99421.81
2022-09-27T14:28:33.004Z,99416.25
2022-09-27T14:34:07.975Z,99418.28
2022-09-27T14:39:27.951Z,99417.00
2022-09-27T14:44:45.951Z,99419.78
2022-09-27T14:50:00.785Z,99415.50
2022-09-27T14:55:17.290Z,99412.72
2022-09-27T15:00:32.997Z,99412.72
2022-09-27T15:05:47.981Z,99419.03
2022-09-27T15:11:02.750Z,99404.41
2022-09-27T15:16:18.031Z,99405.69
2022-09-27T15:21:32.994Z,99407.19
2022-09-27T15:26:47.959Z,99416.25
2022-09-27T15:32:03.301Z,99412.72
2022-09-27T15:37:18.944Z,99407.91
2022-09-27T15:42:34.012Z,99405.88
2022-09-27T15:47:48.960Z,99394.03
2022-09-27T15:53:03.971Z,99389.19
2022-09-27T15:58:19.003Z,99388.47
2022-09-27T16:03:34.055Z,99380.88
2022-09-27T16:08:49.024Z,99378.09
2022-09-27T16:14:03.950Z,99364.94
2022-09-27T16:19:19.009Z,99362.16
2022-09-27T16:24:33.982Z,99356.59
2022-09-27T16:29:48.904Z,99350.28
2022-09-27T16:35:03.734Z,99346.22
2022-09-27T16:40:19.394Z,99350.44
2022-09-27T16:45:35.306Z,99348.25
2022-09-27T16:50:50.310Z,99345.47
2022-09-27T16:56:05.958Z,99340.66
2022-09-27T17:01:21.304Z,99344.91
2022-09-27T17:06:36.746Z,99355.31
2022-09-27T17:11:51.963Z,99342.13
2022-09-27T17:17:06.969Z,99344.38
2022-09-27T17:22:22.035Z,99342.88
2022-09-27T17:27:36.967Z,99332.13
2022-09-27T17:33:29.992Z,99329.53
2022-09-27T17:38:44.976Z,99323.22
2022-09-27T17:43:59.959Z,99330.81
2022-09-27T17:49:15.045Z,99330.81
2022-09-27T17:54:30.282Z,99327.31
2022-09-27T17:59:45.968Z,99329.53
2022-09-27T18:05:00.993Z,99316.19
2022-09-27T18:10:16.297Z,99314.91
2022-09-27T18:15:31.951Z,99307.84
2022-09-27T18:20:47.345Z,99297.28
2022-09-27T18:26:02.998Z,99309.88
2022-09-27T18:31:18.015Z,99310.47
2022-09-27T18:36:33.020Z,99313.25
2022-09-27T18:41:47.968Z,99300.06
2022-09-27T18:47:03.049Z,99298.78
2022-09-27T18:52:18.033Z,99297.28
2022-09-27T18:57:33.002Z,99299.91
2022-09-27T19:02:47.949Z,99304.16
2022-09-27T19:08:02.982Z,99301.00
2022-09-27T19:13:18.312Z,99305.66
2022-09-27T19:18:33.991Z,99306.56
2022-09-27T19:23:49.321Z,99303.59
2022-09-27T19:29:04.976Z,99294.16
2022-09-27T19:34:19.965Z,99291.72
2022-09-27T19:39:34.768Z,99291.72
2022-09-27T19:44:50.988Z,99287.09
2022-09-27T19:50:06.053Z,99278.19
2022-09-27T19:55:21.040Z,99276.31
2022-09-27T20:00:35.992Z,99283.38
2022-09-27T20:05:51.000Z,99282.06
2022-09-27T20:11:06.711Z,99279.47
2022-09-27T20:16:22.158Z,99281.13
2022-09-27T20:21:37.319Z,99273.53
2022-09-27T20:26:53.284Z,99272.22
2022-09-27T20:32:26.852Z,99272.22
2022-09-27T20:37:43.301Z,99268.19
2022-09-27T20:42:59.001Z,99261.28
2022-09-27T20:48:14.019Z,99255.16
2022-09-27T20:53:29.261Z,99250.34
2022-09-27T20:58:45.236Z,99239.38
2022-09-27T21:04:00.980Z,99226.78
2022-09-27T21:09:16.140Z,99233.81
2022-09-27T21:14:31.063Z,99238.63
2022-09-27T21:19:45.994Z,99232.50
2022-09-27T21:25:01.330Z,99239.59
2022-09-27T21:30:17.291Z,99240.13
2022-09-27T21:35:32.971Z,99239.38
2022-09-27T21:40:48.054Z,99231.78
2022-09-27T21:46:03.296Z,99229.56
2022-09-27T21:51:19.033Z,99235.13
2022-09-27T21:56:35.001Z,99232.34
2022-09-27T22:01:49.786Z,99225.31
2022-09-27T22:07:04.820Z,99230.13
2022-09-27T22:12:20.289Z,99228.09
2022-09-27T22:17:36.010Z,99223.81
2022-09-27T22:22:50.987Z,99220.31
2022-09-27T22:28:06.001Z,99223.09
2022-09-27T22:33:21.041Z,99218.81
2022-09-27T22:38:35.995Z,99218.09
2022-09-27T22:43:51.001Z,99218.25
2022-09-27T22:49:06.283Z,99217.72
2022-09-27T22:54:21.995Z,99211.22
2022-09-27T22:59:36.985Z,99213.81
2022-09-27T23:04:51.997Z,99202.88
2022-09-27T23:10:06.973Z,99200.09
2022-09-27T23:15:22.006Z,99197.31
2022-09-27T23:20:37.316Z,99193.97
2022-09-27T23:25:53.032Z,99190.44
2022-09-27T23:31:08.397Z,99190.28
2022-09-27T23:36:24.008Z,99190.81
2022-09-27T23:41:38.993Z,99185.25
2022-09-27T23:46:54.371Z,99187.28
2022-09-27T23:52:10.033Z,99187.50
2022-09-27T23:57:24.988Z,99177.66
